Time;durP1;ratioP1;P1;durP2;ratioP2;P2;SDS_P1;SDS_P2;PMS_P1;PMS_P2;Temp;Humidity;BMP_temperature;BMP_pressure;BME280_temperature;BME280_humidity;BME280_pressure;Samples;Min_cycle;Max_cycle;Signal;HPM_P1;HPM_P2
2022/08/19 00:00:15;;;;;;;17.65;8.55;;;;;;;;;;5085637;28;20500;-84
2022/08/19 00:02:43;;;;;;;15.45;8.88;;;;;;;;;;5066318;28;20047;-84
2022/08/19 00:05:23;;;;;;;17.52;8.68;;;;;;;;;;5084354;28;20067;-84
2022/08/19 00:08:01;;;;;;;17.58;10.75;;;;;;;;;;5113832;27;20046;-84
2022/08/19 00:10:59;;;;;;;19.17;10.38;;;;;;;;;;5094005;28;20512;-84
2022/08/19 00:13:28;;;;;;;21.45;11.20;;;;;;;;;;5081185;28;20028;-84
2022/08/19 00:15:58;;;;;;;19.65;11.48;;;;;;;;;;5119720;27;20032;-84
2022/08/19 00:18:26;;;;;;;25.58;12.38;;;;;;;;;;5087946;28;20093;-88
2022/08/19 00:20:55;;;;;;;27.35;12.93;;;;;;;;;;5088298;28;20048;-88
2022/08/19 00:23:46;;;;;;;21.42;12.32;;;;;;;;;;5100312;27;20031;-87
2022/08/19 00:26:14;;;;;;;25.02;13.63;;;;;;;;;;5089825;28;20036;-87
2022/08/19 00:28:42;;;;;;;24.98;13.15;;;;;;;;;;5070741;28;20040;-84
2022/08/19 00:31:10;;;;;;;27.38;13.77;;;;;;;;;;5101426;27;20118;-84
2022/08/19 00:33:43;;;;;;;24.70;13.70;;;;;;;;;;5083162;28;20059;-84
2022/08/19 00:36:11;;;;;;;23.40;13.60;;;;;;;;;;5083199;28;20144;-85
2022/08/19 00:38:47;;;;;;;20.83;12.73;;;;;;;;;;5075534;28;20051;-88
2022/08/19 00:41:23;;;;;;;22.67;13.27;;;;;;;;;;5106512;28;20071;-87
2022/08/19 00:44:09;;;;;;;22.70;12.05;;;;;;;;;;5100271;28;20047;-88
2022/08/19 00:46:45;;;;;;;24.30;13.00;;;;;;;;;;5091437;28;20660;-85
2022/08/19 00:49:27;;;;;;;22.70;12.38;;;;;;;;;;5116481;27;20040;-84
2022/08/19 00:52:02;;;;;;;26.08;12.27;;;;;;;;;;5070453;28;20039;-84
2022/08/19 00:54:31;;;;;;;27.25;13.23;;;;;;;;;;5101417;28;20394;-84
2022/08/19 00:57:12;;;;;;;24.30;13.57;;;;;;;;;;5088154;28;20040;-84
2022/08/19 00:59:45;;;;;;;29.23;13.80;;;;;;;;;;5084502;28;20043;-84
2022/08/19 01:02:33;;;;;;;21.42;12.82;;;;;;;;;;5081992;28;20071;-84
2022/08/19 01:05:04;;;;;;;23.27;12.50;;;;;;;;;;5102990;28;20039;-84
2022/08/19 01:07:34;;;;;;;26.40;13.20;;;;;;;;;;5107503;28;20039;-87
2022/08/19 01:10:11;;;;;;;23.25;12.32;;;;;;;;;;5099872;28;20044;-87
2022/08/19 01:12:39;;;;;;;23.63;11.77;;;;;;;;;;5086117;28;20042;-87
2022/08/19 01:15:43;;;;;;;19.95;11.43;;;;;;;;;;5088560;28;20023;-88
2022/08/19 01:18:13;;;;;;;24.35;12.48;;;;;;;;;;5100592;28;20493;-84
2022/08/19 01:20:42;;;;;;;23.67;13.50;;;;;;;;;;5089766;28;20074;-84
2022/08/19 01:23:12;;;;;;;26.25;12.77;;;;;;;;;;5070215;28;20053;-84
2022/08/19 01:25:52;;;;;;;25.73;12.82;;;;;;;;;;5071249;28;20031;-84
2022/08/19 01:28:27;;;;;;;32.80;14.55;;;;;;;;;;5087760;28;20631;-84
2022/08/19 01:31:00;;;;;;;30.10;13.85;;;;;;;;;;5088995;28;20112;-84
2022/08/19 01:33:34;;;;;;;26.45;13.48;;;;;;;;;;5085414;28;20123;-84
2022/08/19 01:36:14;;;;;;;26.38;14.88;;;;;;;;;;5086927;28;20036;-87
2022/08/19 01:38:49;;;;;;;33.92;14.98;;;;;;;;;;5084681;28;20113;-84
2022/08/19 01:41:23;;;;;;;21.88;13.25;;;;;;;;;;5088792;28;20039;-84
2022/08/19 01:43:52;;;;;;;28.88;14.65;;;;;;;;;;5082602;28;20051;-84
2022/08/19 01:47:04;;;;;;;26.65;14.05;;;;;;;;;;5102884;28;20074;-87
2022/08/19 01:49:38;;;;;;;23.90;14.52;;;;;;;;;;5072789;28;20044;-87
2022/08/19 01:52:15;;;;;;;27.08;13.95;;;;;;;;;;5088313;27;20060;-88
2022/08/19 01:54:42;;;;;;;24.75;14.43;;;;;;;;;;5091629;27;20832;-87
2022/08/19 01:57:15;;;;;;;28.95;13.88;;;;;;;;;;5110674;27;20085;-84
2022/08/19 01:59:44;;;;;;;27.55;13.40;;;;;;;;;;5105682;28;20857;-84
2022/08/19 02:02:39;;;;;;;;;;;;;;;;;;5109919;27;20057;-84
2022/08/19 02:05:37;;;;;;;24.40;13.43;;;;;;;;;;5101431;28;20400;-84
2022/08/19 02:08:32;;;;;;;31.17;13.82;;;;;;;;;;5087460;28;20039;-87
2022/08/19 02:11:31;;;;;;;31.48;14.20;;;;;;;;;;5087221;28;20035;-88
2022/08/19 02:14:01;;;;;;;26.58;13.68;;;;;;;;;;5103661;28;20093;-88
2022/08/19 02:16:34;;;;;;;27.65;14.20;;;;;;;;;;5089191;27;20138;-87
2022/08/19 02:19:06;;;;;;;27.08;14.20;;;;;;;;;;5087920;28;20044;-84
2022/08/19 02:21:35;;;;;;;25.55;14.35;;;;;;;;;;5090779;28;20035;-84
2022/08/19 02:24:07;;;;;;;30.13;14.93;;;;;;;;;;5103088;28;20043;-84
2022/08/19 02:26:36;;;;;;;38.97;15.07;;;;;;;;;;5102701;28;20040;-85
2022/08/19 02:29:04;;;;;;;34.10;16.13;;;;;;;;;;5086961;28;20485;-84
2022/08/19 02:31:56;;;;;;;32.00;14.68;;;;;;;;;;5084113;28;20039;-84
2022/08/19 02:34:24;;;;;;;36.88;15.60;;;;;;;;;;5115058;27;20455;-84
2022/08/19 02:36:56;;;;;;;32.30;15.88;;;;;;;;;;5102673;28;20043;-84
2022/08/19 02:39:34;;;;;;;31.75;14.15;;;;;;;;;;5117295;27;20035;-84
2022/08/19 02:42:02;;;;;;;25.20;14.13;;;;;;;;;;5104262;28;20047;-84
2022/08/19 02:44:34;;;;;;;29.90;13.55;;;;;;;;;;5087980;27;20027;-84
2022/08/19 02:47:03;;;;;;;29.50;13.77;;;;;;;;;;5105285;27;20143;-84
2022/08/19 02:49:41;;;;;;;28.75;13.65;;;;;;;;;;5099922;28;20042;-84
2022/08/19 02:52:08;;;;;;;28.83;13.70;;;;;;;;;;5110581;28;20396;-84
2022/08/19 02:54:40;;;;;;;24.88;13.27;;;;;;;;;;5090915;28;20032;-84
2022/08/19 02:57:08;;;;;;;24.15;12.57;;;;;;;;;;5108215;28;20039;-87
2022/08/19 02:59:36;;;;;;;24.40;13.30;;;;;;;;;;5098958;28;20122;-88
2022/08/19 03:02:04;;;;;;;26.60;12.63;;;;;;;;;;5087634;28;20596;-87
2022/08/19 03:04:32;;;;;;;24.27;13.73;;;;;;;;;;5054490;28;20043;-88
2022/08/19 03:07:04;;;;;;;32.33;14.07;;;;;;;;;;5103413;28;20113;-88
2022/08/19 03:09:39;;;;;;;29.80;14.45;;;;;;;;;;5090727;28;20039;-88
2022/08/19 03:12:06;;;;;;;29.75;13.85;;;;;;;;;;5069751;28;20048;-88
2022/08/19 03:14:38;;;;;;;31.73;12.85;;;;;;;;;;5093063;28;20036;-87
2022/08/19 03:17:17;;;;;;;32.17;14.02;;;;;;;;;;5117357;27;20150;-84
2022/08/19 03:19:47;;;;;;;31.23;15.13;;;;;;;;;;5100986;28;20911;-84
2022/08/19 03:22:18;;;;;;;28.70;13.63;;;;;;;;;;5104890;27;20059;-84
2022/08/19 03:24:46;;;;;;;27.65;13.27;;;;;;;;;;5088575;28;20088;-84
2022/08/19 03:27:18;;;;;;;28.50;13.90;;;;;;;;;;5120464;27;20040;-87
2022/08/19 03:29:51;;;;;;;31.02;14.35;;;;;;;;;;5083773;28;20031;-88
2022/08/19 03:32:18;;;;;;;27.98;14.70;;;;;;;;;;5086673;28;20122;-87
2022/08/19 03:35:01;;;;;;;30.90;14.13;;;;;;;;;;5098702;27;20100;-87
2022/08/19 03:37:28;;;;;;;33.35;14.27;;;;;;;;;;5097732;28;20043;-84
2022/08/19 03:39:56;;;;;;;32.80;14.75;;;;;;;;;;5085889;28;20036;-84
2022/08/19 03:42:26;;;;;;;32.60;14.57;;;;;;;;;;5086851;28;20147;-84
2022/08/19 03:45:14;;;;;;;31.08;13.32;;;;;;;;;;5091908;27;20035;-84
2022/08/19 03:47:42;;;;;;;30.70;13.93;;;;;;;;;;5088666;28;20039;-84
2022/08/19 03:50:10;;;;;;;31.77;14.43;;;;;;;;;;5119784;27;20044;-84
2022/08/19 03:52:39;;;;;;;31.90;14.63;;;;;;;;;;5085847;28;20043;-84
2022/08/19 03:55:13;;;;;;;29.88;14.40;;;;;;;;;;5099477;28;20040;-84
2022/08/19 03:57:40;;;;;;;30.65;14.15;;;;;;;;;;5077913;28;20035;-84
2022/08/19 04:00:14;;;;;;;26.88;13.98;;;;;;;;;;5086277;28;20046;-84
2022/08/19 04:02:43;;;;;;;27.65;13.68;;;;;;;;;;5117169;27;20044;-84
2022/08/19 04:05:32;;;;;;;34.13;14.73;;;;;;;;;;5094348;28;20031;-84
2022/08/19 04:08:00;;;;;;;30.50;13.50;;;;;;;;;;5074350;28;20386;-87
2022/08/19 04:10:28;;;;;;;27.75;13.75;;;;;;;;;;5089557;28;20042;-87
2022/08/19 04:12:56;;;;;;;30.63;14.10;;;;;;;;;;5099186;28;20040;-88
2022/08/19 04:15:24;;;;;;;38.65;13.57;;;;;;;;;;5079926;28;20485;-88
2022/08/19 04:17:52;;;;;;;28.70;14.23;;;;;;;;;;5105730;27;20096;-84
2022/08/19 04:20:20;;;;;;;29.63;14.52;;;;;;;;;;5104135;28;20381;-84
2022/08/19 04:22:48;;;;;;;26.52;13.93;;;;;;;;;;5086712;28;20052;-84
2022/08/19 04:25:16;;;;;;;34.45;14.45;;;;;;;;;;5093477;28;20043;-84
2022/08/19 04:28:11;;;;;;;23.42;12.52;;;;;;;;;;5087668;28;20500;-88
2022/08/19 04:30:47;;;;;;;31.67;13.75;;;;;;;;;;5090901;28;20036;-85
2022/08/19 04:33:16;;;;;;;28.98;14.50;;;;;;;;;;5096628;28;20031;-87
2022/08/19 04:36:21;;;;;;;26.83;13.40;;;;;;;;;;5081753;27;20094;-86
2022/08/19 04:38:50;;;;;;;34.90;14.82;;;;;;;;;;5099960;28;20044;-88
2022/08/19 04:44:35;;;;;;;25.85;12.82;;;;;;;;;;5097744;28;20047;-87
2022/08/19 04:47:13;;;;;;;28.15;14.80;;;;;;;;;;5088771;28;20074;-84
2022/08/19 04:50:05;;;;;;;33.35;16.70;;;;;;;;;;5082337;28;20118;-84
2022/08/19 04:52:58;;;;;;;31.92;15.60;;;;;;;;;;5102490;28;20039;-85
2022/08/19 04:55:26;;;;;;;36.63;15.98;;;;;;;;;;5085210;28;20579;-85
2022/08/19 04:57:54;;;;;;;36.67;16.42;;;;;;;;;;5102137;28;20043;-85
2022/08/19 05:00:23;;;;;;;33.65;16.13;;;;;;;;;;5089912;28;20043;-86
2022/08/19 05:02:50;;;;;;;34.80;15.73;;;;;;;;;;5098785;28;20082;-85
2022/08/19 05:05:22;;;;;;;29.98;15.43;;;;;;;;;;5084801;28;20071;-85
2022/08/19 05:08:19;;;;;;;34.75;14.57;;;;;;;;;;5115047;27;20048;-87
2022/08/19 05:10:58;;;;;;;32.30;13.65;;;;;;;;;;5113465;27;20036;-86
2022/08/19 05:13:51;;;;;;;30.95;15.13;;;;;;;;;;5079983;28;20043;-88
2022/08/19 05:16:20;;;;;;;37.03;14.98;;;;;;;;;;5110764;28;20032;-86
2022/08/19 05:24:23;;;;;;;38.60;15.48;;;;;;;;;;5100236;28;20040;-89
2022/08/19 05:26:51;;;;;;;32.97;15.50;;;;;;;;;;5094151;27;20436;-90
2022/08/19 05:29:44;;;;;;;32.13;13.98;;;;;;;;;;5106749;27;20054;-90
2022/08/19 05:32:12;;;;;;;33.40;15.95;;;;;;;;;;5089331;28;20425;-91
2022/08/19 05:35:05;;;;;;;43.55;17.00;;;;;;;;;;5075855;27;20036;-90
2022/08/19 05:37:58;;;;;;;31.30;15.10;;;;;;;;;;5108121;27;20055;-86
2022/08/19 05:40:26;;;;;;;35.50;16.50;;;;;;;;;;5086600;28;20054;-87
2022/08/19 05:42:54;;;;;;;29.40;14.73;;;;;;;;;;5108874;27;20043;-87
2022/08/19 05:45:22;;;;;;;31.30;15.20;;;;;;;;;;5075082;28;21921;-87
2022/08/19 05:47:54;;;;;;;32.85;15.38;;;;;;;;;;5108139;28;20409;-91
2022/08/19 05:50:22;;;;;;;33.60;15.10;;;;;;;;;;5101041;27;20062;-92
2022/08/19 05:52:50;;;;;;;34.45;14.73;;;;;;;;;;5058755;28;20039;-92
2022/08/19 05:55:23;;;;;;;27.15;14.48;;;;;;;;;;5108286;27;20467;-92
2022/08/19 05:57:50;;;;;;;32.72;14.60;;;;;;;;;;5078406;28;20086;-87
2022/08/19 06:00:18;;;;;;;32.75;13.45;;;;;;;;;;5092297;28;20130;-88
2022/08/19 06:02:50;;;;;;;24.98;13.32;;;;;;;;;;5069670;28;20051;-88
2022/08/19 06:05:45;;;;;;;25.73;13.90;;;;;;;;;;5099691;28;20146;-88
2022/08/19 06:08:19;;;;;;;31.67;14.20;;;;;;;;;;5093259;28;20118;-92
2022/08/19 06:11:13;;;;;;;27.05;12.98;;;;;;;;;;5114097;28;20082;-91
2022/08/19 06:13:40;;;;;;;27.45;12.90;;;;;;;;;;5080910;28;20050;-92
2022/08/19 06:16:19;;;;;;;27.75;15.00;;;;;;;;;;5077925;28;20152;-92
2022/08/19 06:18:56;;;;;;;31.30;14.40;;;;;;;;;;5065061;28;20131;-88
2022/08/19 06:21:30;;;;;;;28.40;13.35;;;;;;;;;;5060920;28;20043;-88
2022/08/19 06:24:07;;;;;;;30.92;13.45;;;;;;;;;;5096404;28;20110;-88
2022/08/19 06:26:39;;;;;;;29.30;13.35;;;;;;;;;;5073485;28;20122;-88
2022/08/19 06:29:10;;;;;;;28.52;14.25;;;;;;;;;;5079053;28;20048;-92
2022/08/19 06:31:56;;;;;;;30.25;13.23;;;;;;;;;;5100181;28;20612;-92
2022/08/19 06:35:09;;;;;;;28.60;13.93;;;;;;;;;;5101070;28;20035;-91
2022/08/19 06:37:48;;;;;;;30.88;14.68;;;;;;;;;;5081317;28;20049;-88
2022/08/19 06:40:18;;;;;;;29.20;13.93;;;;;;;;;;5087218;28;20495;-87
2022/08/19 06:43:06;;;;;;;29.20;14.32;;;;;;;;;;5103061;27;20043;-87
2022/08/19 06:45:40;;;;;;;29.90;13.80;;;;;;;;;;5073316;28;20043;-88
2022/08/19 06:48:13;;;;;;;30.75;13.75;;;;;;;;;;5079105;28;20118;-88
2022/08/19 06:50:40;;;;;;;26.52;12.57;;;;;;;;;;5060792;28;20047;-88
2022/08/19 06:53:15;;;;;;;28.35;14.10;;;;;;;;;;5096185;28;20035;-88
2022/08/19 06:55:47;;;;;;;26.52;13.38;;;;;;;;;;5084860;27;20071;-88
2022/08/19 06:58:14;;;;;;;28.05;13.65;;;;;;;;;;5092994;28;20554;-92
2022/08/19 07:00:46;;;;;;;23.45;13.18;;;;;;;;;;5113113;27;20090;-92
2022/08/19 07:03:14;;;;;;;26.92;13.35;;;;;;;;;;5072019;28;20047;-92
2022/08/19 07:06:11;;;;;;;25.08;12.52;;;;;;;;;;5102785;28;20067;-88
2022/08/19 07:09:29;;;;;;;30.50;13.45;;;;;;;;;;5080635;28;20092;-87
2022/08/19 07:12:34;;;;;;;26.10;13.00;;;;;;;;;;5074593;28;20032;-88
2022/08/19 07:15:08;;;;;;;25.05;13.68;;;;;;;;;;5100508;28;20036;-88
2022/08/19 07:17:38;;;;;;;28.45;12.27;;;;;;;;;;5095844;28;20059;-93
2022/08/19 07:20:19;;;;;;;22.63;12.18;;;;;;;;;;5067350;28;20047;-93
2022/08/19 07:22:47;;;;;;;23.48;11.77;;;;;;;;;;5112441;28;20123;-93
2022/08/19 07:25:17;;;;;;;27.17;12.85;;;;;;;;;;5084497;28;20041;-93
2022/08/19 07:28:16;;;;;;;25.67;12.20;;;;;;;;;;5096197;27;20511;-88
2022/08/19 07:30:51;;;;;;;24.55;11.27;;;;;;;;;;5094874;27;20035;-89
2022/08/19 07:33:19;;;;;;;22.95;12.05;;;;;;;;;;5098323;28;20075;-89
2022/08/19 07:35:46;;;;;;;28.65;12.77;;;;;;;;;;5062167;28;20051;-89
2022/08/19 07:38:15;;;;;;;25.50;12.85;;;;;;;;;;5079549;28;20043;-89
2022/08/19 07:40:45;;;;;;;23.70;12.32;;;;;;;;;;5054073;28;20051;-89
2022/08/19 07:43:13;;;;;;;26.67;13.45;;;;;;;;;;5089458;28;20042;-89
2022/08/19 07:45:46;;;;;;;24.45;11.93;;;;;;;;;;5104176;27;20039;-89
2022/08/19 07:48:29;;;;;;;25.63;13.02;;;;;;;;;;5092127;28;20040;-90
2022/08/19 07:51:01;;;;;;;31.42;13.02;;;;;;;;;;5104860;27;20477;-90
2022/08/19 07:53:30;;;;;;;24.17;12.43;;;;;;;;;;5108183;27;20055;-90
2022/08/19 07:56:23;;;;;;;27.95;13.82;;;;;;;;;;5089162;28;20043;-86
2022/08/19 07:58:56;;;;;;;28.92;13.13;;;;;;;;;;5071980;27;20468;-86
2022/08/19 08:01:49;;;;;;;28.80;13.48;;;;;;;;;;5106266;28;20035;-86
2022/08/19 08:10:20;;;;;;;25.38;14.13;;;;;;;;;;5092212;28;20093;-90
2022/08/19 08:12:51;;;;;;;28.50;14.70;;;;;;;;;;5074085;28;20040;-89
2022/08/19 08:15:38;;;;;;;27.83;14.23;;;;;;;;;;5111325;27;20068;-89
2022/08/19 08:18:11;;;;;;;29.02;12.70;;;;;;;;;;5101915;27;20175;-89
2022/08/19 08:21:02;;;;;;;29.42;13.75;;;;;;;;;;5089058;28;20596;-89
2022/08/19 08:23:55;;;;;;;31.88;13.73;;;;;;;;;;5078511;28;20032;-89
2022/08/19 08:26:23;;;;;;;25.92;12.52;;;;;;;;;;5074602;28;20109;-88
2022/08/19 08:28:51;;;;;;;27.08;13.18;;;;;;;;;;5092608;28;20511;-85
2022/08/19 08:31:23;;;;;;;31.98;14.32;;;;;;;;;;5073612;28;20043;-85
2022/08/19 08:33:50;;;;;;;31.80;14.95;;;;;;;;;;5055519;28;20047;-85
2022/08/19 08:36:25;;;;;;;26.55;13.88;;;;;;;;;;5091089;28;20036;-86
2022/08/19 08:38:56;;;;;;;28.58;13.90;;;;;;;;;;5106150;28;20054;-90
2022/08/19 08:41:27;;;;;;;31.17;14.82;;;;;;;;;;5083671;28;20922;-90
2022/08/19 08:43:56;;;;;;;31.90;15.52;;;;;;;;;;5096386;28;20489;-90
2022/08/19 08:46:47;;;;;;;30.98;14.55;;;;;;;;;;5099718;28;20043;-87
2022/08/19 08:49:24;;;;;;;28.88;14.73;;;;;;;;;;5087459;28;20068;-89
2022/08/19 08:52:19;;;;;;;31.63;14.48;;;;;;;;;;5095970;28;20044;-89
2022/08/19 08:54:50;;;;;;;35.60;14.38;;;;;;;;;;5117709;27;20051;-89
2022/08/19 08:57:33;;;;;;;28.08;13.68;;;;;;;;;;5103268;27;20374;-89
2022/08/19 09:00:31;;;;;;;29.20;12.75;;;;;;;;;;5116790;28;20032;-89
2022/08/19 09:03:15;;;;;;;32.40;14.77;;;;;;;;;;5094796;28;20050;-89
2022/08/19 09:06:12;;;;;;;27.58;13.00;;;;;;;;;;5107993;28;20043;-89
2022/08/19 09:08:59;;;;;;;26.75;12.98;;;;;;;;;;5103002;28;20044;-85
2022/08/19 09:11:47;;;;;;;24.42;13.45;;;;;;;;;;5081554;28;20032;-85
2022/08/19 09:14:34;;;;;;;28.38;14.05;;;;;;;;;;5082442;28;20082;-85
2022/08/19 09:17:24;;;;;;;28.60;12.43;;;;;;;;;;5095887;28;20035;-86
2022/08/19 09:20:08;;;;;;;32.88;13.88;;;;;;;;;;5123299;27;20044;-85
2022/08/19 09:22:38;;;;;;;29.27;12.85;;;;;;;;;;5106200;28;20068;-86
2022/08/19 09:25:09;;;;;;;27.98;14.63;;;;;;;;;;5073659;28;20056;-86
2022/08/19 09:27:44;;;;;;;23.30;12.60;;;;;;;;;;5086390;28;20493;-85
2022/08/19 09:30:17;;;;;;;29.75;13.25;;;;;;;;;;5106876;28;20044;-86
2022/08/19 09:32:45;;;;;;;25.23;13.32;;;;;;;;;;5090980;28;20070;-86
2022/08/19 09:35:21;;;;;;;24.63;13.00;;;;;;;;;;5073693;28;20454;-85
2022/08/19 09:37:56;;;;;;;25.85;13.50;;;;;;;;;;5082410;28;20044;-86
2022/08/19 09:40:28;;;;;;;24.42;12.27;;;;;;;;;;5115625;27;20043;-86
2022/08/19 09:43:28;;;;;;;30.55;14.18;;;;;;;;;;5089237;28;20489;-86
2022/08/19 09:46:11;;;;;;;30.85;13.57;;;;;;;;;;5096586;28;20323;-89
2022/08/19 09:49:06;;;;;;;25.83;13.32;;;;;;;;;;5071831;28;20169;-89
2022/08/19 09:51:40;;;;;;;30.25;13.80;;;;;;;;;;5083559;28;20046;-89
2022/08/19 09:54:14;;;;;;;29.90;13.30;;;;;;;;;;5083602;28;20046;-89
2022/08/19 09:56:51;;;;;;;29.92;14.02;;;;;;;;;;5082546;28;20118;-86
2022/08/19 09:59:18;;;;;;;28.17;13.63;;;;;;;;;;5074692;28;20050;-86
2022/08/19 10:01:46;;;;;;;27.48;14.27;;;;;;;;;;5071904;28;20063;-86
2022/08/19 10:04:16;;;;;;;25.33;13.40;;;;;;;;;;5107756;28;20039;-86
2022/08/19 10:06:51;;;;;;;29.13;14.80;;;;;;;;;;5070897;28;20051;-86
2022/08/19 10:09:22;;;;;;;29.20;13.95;;;;;;;;;;5072433;28;20040;-86
2022/08/19 10:12:07;;;;;;;28.25;13.48;;;;;;;;;;5083797;28;21705;-87
2022/08/19 10:14:43;;;;;;;26.52;13.98;;;;;;;;;;5102898;28;20050;-86
2022/08/19 10:17:10;;;;;;;28.17;13.43;;;;;;;;;;5102980;28;20135;-86
2022/08/19 10:20:17;;;;;;;27.52;13.93;;;;;;;;;;5081364;28;20032;-86
2022/08/19 10:22:44;;;;;;;27.52;13.30;;;;;;;;;;5100194;27;20115;-86
2022/08/19 10:25:16;;;;;;;27.63;13.90;;;;;;;;;;5119954;27;20064;-86
2022/08/19 10:27:44;;;;;;;27.05;12.68;;;;;;;;;;5085838;28;20044;-89
2022/08/19 10:30:37;;;;;;;27.25;13.45;;;;;;;;;;5108747;27;20024;-89
2022/08/19 10:33:10;;;;;;;21.02;12.65;;;;;;;;;;5096537;28;20401;-90
2022/08/19 10:35:39;;;;;;;26.85;13.60;;;;;;;;;;5104636;27;20032;-89
2022/08/19 10:38:23;;;;;;;25.48;12.40;;;;;;;;;;5093544;28;20067;-86
2022/08/19 10:41:07;;;;;;;26.90;13.50;;;;;;;;;;5101019;28;20044;-86
2022/08/19 10:44:04;;;;;;;26.63;13.23;;;;;;;;;;5086664;28;20178;-86
2022/08/19 10:46:35;;;;;;;22.10;12.10;;;;;;;;;;5100713;27;20040;-89
2022/08/19 10:49:13;;;;;;;27.70;13.82;;;;;;;;;;5082554;28;20060;-90
2022/08/19 10:57:45;;;;;;;27.25;11.65;;;;;;;;;;5103693;28;20036;-88
2022/08/19 11:00:56;;;;;;;30.35;14.27;;;;;;;;;;5080865;28;20566;-89
2022/08/19 11:03:27;;;;;;;29.83;13.07;;;;;;;;;;5067655;28;20613;-88
2022/08/19 11:05:59;;;;;;;22.08;12.52;;;;;;;;;;5084709;28;20044;-88
2022/08/19 11:08:27;;;;;;;24.30;12.65;;;;;;;;;;5087509;28;20043;-92
2022/08/19 11:11:18;;;;;;;25.77;13.23;;;;;;;;;;5120001;27;20127;-92
2022/08/19 11:13:49;;;;;;;21.48;11.93;;;;;;;;;;5104023;28;20052;-92
2022/08/19 11:16:33;;;;;;;25.58;12.63;;;;;;;;;;5069797;28;20092;-92
2022/08/19 11:19:09;;;;;;;28.60;12.00;;;;;;;;;;5102155;28;20051;-88
2022/08/19 11:21:42;;;;;;;22.15;11.93;;;;;;;;;;5099359;28;20035;-88
2022/08/19 11:24:15;;;;;;;23.05;11.50;;;;;;;;;;5102365;28;20067;-89
2022/08/19 11:26:44;;;;;;;24.58;12.57;;;;;;;;;;5085478;28;20031;-92
2022/08/19 11:29:18;;;;;;;23.20;11.50;;;;;;;;;;5068275;28;20394;-92
2022/08/19 11:31:49;;;;;;;24.15;12.40;;;;;;;;;;5092273;28;20134;-92
2022/08/19 11:34:25;;;;;;;25.58;12.05;;;;;;;;;;5088403;28;20040;-92
2022/08/19 11:37:42;;;;;;;20.23;11.68;;;;;;;;;;5105783;28;20501;-90
2022/08/19 11:40:14;;;;;;;20.38;10.93;;;;;;;;;;5082439;28;20040;-91
2022/08/19 11:42:55;;;;;;;19.20;9.63;;;;;;;;;;5100702;27;20050;-91
2022/08/19 11:45:24;;;;;;;24.52;10.82;;;;;;;;;;5090025;28;20066;-91
2022/08/19 11:47:53;;;;;;;21.75;10.68;;;;;;;;;;5084518;28;20088;-92
2022/08/19 11:50:21;;;;;;;20.25;11.23;;;;;;;;;;5099845;28;20122;-93
2022/08/19 11:52:49;;;;;;;19.00;11.38;;;;;;;;;;5053698;28;20127;-92
2022/08/19 11:55:23;;;;;;;18.75;10.95;;;;;;;;;;5100705;28;20031;-92
2022/08/19 11:57:56;;;;;;;19.98;10.85;;;;;;;;;;5053398;28;20067;-92
2022/08/19 12:00:24;;;;;;;18.75;10.07;;;;;;;;;;5075593;28;20051;-92
2022/08/19 12:02:52;;;;;;;19.83;11.07;;;;;;;;;;5119321;27;20059;-92
2022/08/19 12:05:20;;;;;;;18.30;12.40;;;;;;;;;;5078212;28;20092;-91
2022/08/19 12:07:48;;;;;;;19.85;9.95;;;;;;;;;;5118329;27;20040;-89
2022/08/19 12:10:45;;;;;;;22.23;11.43;;;;;;;;;;5084922;28;20096;-89
2022/08/19 12:13:38;;;;;;;16.42;11.18;;;;;;;;;;5070900;28;20089;-89
2022/08/19 12:16:32;;;;;;;21.23;10.27;;;;;;;;;;5083509;28;20031;-91
2022/08/19 12:19:05;;;;;;;16.45;10.52;;;;;;;;;;5085643;28;20047;-89
2022/08/19 12:21:35;;;;;;;20.10;11.50;;;;;;;;;;5111425;27;20051;-89
2022/08/19 12:24:05;;;;;;;19.52;10.73;;;;;;;;;;5070260;27;20054;-89
2022/08/19 12:26:35;;;;;;;18.35;11.02;;;;;;;;;;5085641;28;20063;-91
2022/08/19 12:29:25;;;;;;;20.67;10.15;;;;;;;;;;5102725;28;20070;-89
2022/08/19 12:32:01;;;;;;;17.63;9.88;;;;;;;;;;5103773;27;20042;-89
2022/08/19 12:34:32;;;;;;;15.60;9.32;;;;;;;;;;5093242;28;20393;-89
2022/08/19 12:37:25;;;;;;;19.08;10.38;;;;;;;;;;5077587;28;20122;-91
2022/08/19 12:39:52;;;;;;;15.38;9.27;;;;;;;;;;5083975;28;20074;-92
2022/08/19 12:42:22;;;;;;;17.45;10.35;;;;;;;;;;5102339;27;20051;-91
2022/08/19 12:44:51;;;;;;;19.25;8.93;;;;;;;;;;5087104;28;20036;-91
2022/08/19 12:47:18;;;;;;;15.13;9.57;;;;;;;;;;5113014;27;20114;-92
2022/08/19 12:50:10;;;;;;;15.68;9.30;;;;;;;;;;5097479;28;20070;-93
2022/08/19 12:52:39;;;;;;;13.63;8.40;;;;;;;;;;5104846;28;20043;-93
2022/08/19 12:55:12;;;;;;;22.10;9.50;;;;;;;;;;5097199;28;20086;-93
2022/08/19 12:57:40;;;;;;;16.55;9.52;;;;;;;;;;5075003;28;20058;-93
2022/08/19 13:00:20;;;;;;;15.10;9.25;;;;;;;;;;5065252;28;20130;-93
2022/08/19 13:05:44;;;;;;;13.40;8.77;;;;;;;;;;5106719;28;20054;-93
2022/08/19 13:08:12;;;;;;;13.73;9.10;;;;;;;;;;5098760;28;20035;-92
2022/08/19 13:10:41;;;;;;;14.77;9.90;;;;;;;;;;5085729;28;20448;-90
2022/08/19 13:13:37;;;;;;;18.25;9.80;;;;;;;;;;5105308;27;20039;-90
2022/08/19 13:16:08;;;;;;;19.00;8.27;;;;;;;;;;5068105;28;20051;-91
2022/08/19 13:19:04;;;;;;;13.27;8.88;;;;;;;;;;5083832;28;20142;-92
2022/08/19 13:21:33;;;;;;;16.05;8.55;;;;;;;;;;5088235;28;20291;-91
2022/08/19 13:24:06;;;;;;;17.88;8.75;;;;;;;;;;5069419;28;20101;-91
2022/08/19 13:26:34;;;;;;;14.85;8.65;;;;;;;;;;5068858;28;20040;-90
2022/08/19 13:35:26;;;;;;;12.80;8.35;;;;;;;;;;5086149;28;20044;-89
2022/08/19 13:37:58;;;;;;;14.35;9.00;;;;;;;;;;5079719;28;21022;-90
2022/08/19 13:40:27;;;;;;;14.98;9.27;;;;;;;;;;5101156;28;20039;-90
2022/08/19 13:42:55;;;;;;;15.02;8.75;;;;;;;;;;5085943;28;20113;-90
2022/08/19 13:45:24;;;;;;;15.50;9.10;;;;;;;;;;5084904;28;20473;-90
2022/08/19 13:47:55;;;;;;;13.95;8.60;;;;;;;;;;5072071;28;20036;-89
2022/08/19 13:50:31;;;;;;;15.13;8.65;;;;;;;;;;5069230;28;20046;-90
2022/08/19 13:53:04;;;;;;;13.40;9.23;;;;;;;;;;5091570;28;20043;-90
2022/08/19 13:55:38;;;;;;;15.20;9.55;;;;;;;;;;5108646;27;20055;-90
2022/08/19 13:58:06;;;;;;;14.30;9.18;;;;;;;;;;5062176;28;20040;-90
2022/08/19 14:00:42;;;;;;;13.10;8.70;;;;;;;;;;5080040;28;20057;-90
2022/08/19 14:03:11;;;;;;;15.90;9.45;;;;;;;;;;5100619;28;20430;-90
2022/08/19 14:05:38;;;;;;;14.00;7.95;;;;;;;;;;5107277;28;20039;-90
2022/08/19 14:08:07;;;;;;;13.25;8.63;;;;;;;;;;5085485;28;20043;-86
2022/08/19 14:10:34;;;;;;;13.88;7.85;;;;;;;;;;5087652;28;20431;-86
2022/08/19 14:13:03;;;;;;;12.88;8.80;;;;;;;;;;5085893;28;20062;-86
2022/08/19 14:15:37;;;;;;;13.23;8.15;;;;;;;;;;5054276;28;20036;-85
2022/08/19 14:18:11;;;;;;;12.63;7.28;;;;;;;;;;5111491;27;20027;-90
2022/08/19 14:20:38;;;;;;;19.38;8.05;;;;;;;;;;5093543;28;20031;-90
2022/08/19 14:23:06;;;;;;;20.85;8.43;;;;;;;;;;5077050;28;20031;-91
2022/08/19 14:25:35;;;;;;;12.18;8.02;;;;;;;;;;5105145;27;20047;-90
2022/08/19 14:28:33;;;;;;;;;;;;;;;;;;;;;
2022/08/19 14:32:08;;;;;;;11.57;7.95;;;;;;;;;;5100228;28;20421;-90
2022/08/19 14:34:45;;;;;;;12.88;8.30;;;;;;;;;;5079363;28;20039;-90
2022/08/19 14:38:02;;;;;;;10.68;7.65;;;;;;;;;;5088457;28;20062;-87
2022/08/19 14:41:11;;;;;;;12.07;7.90;;;;;;;;;;5044878;28;20040;-89
2022/08/19 14:44:02;;;;;;;12.88;7.32;;;;;;;;;;5057679;28;20507;-88
2022/08/19 14:46:30;;;;;;;14.27;8.15;;;;;;;;;;5024654;28;20514;-93
2022/08/19 14:49:05;;;;;;;9.65;7.18;;;;;;;;;;5056132;28;20056;-93
2022/08/19 14:51:56;;;;;;;9.18;6.88;;;;;;;;;;5011173;28;20056;-93
2022/08/19 14:54:24;;;;;;;10.05;7.40;;;;;;;;;;5041154;28;20110;-93
2022/08/19 14:57:16;;;;;;;9.95;6.63;;;;;;;;;;5053357;28;20794;-88
2022/08/19 14:59:44;;;;;;;11.65;8.15;;;;;;;;;;5026573;28;20049;-88
2022/08/19 15:02:17;;;;;;;9.15;7.00;;;;;;;;;;5053445;28;20139;-88
2022/08/19 15:05:01;;;;;;;11.15;6.65;;;;;;;;;;5037729;28;20075;-88
2022/08/19 15:07:34;;;;;;;16.90;8.00;;;;;;;;;;5053343;28;20116;-86
2022/08/19 15:10:03;;;;;;;13.90;7.90;;;;;;;;;;5045722;28;20041;-86
2022/08/19 15:12:30;;;;;;;10.40;7.57;;;;;;;;;;5033733;28;20549;-86
2022/08/19 15:14:58;;;;;;;13.10;8.10;;;;;;;;;;5039518;28;20267;-86
2022/08/19 15:17:26;;;;;;;12.23;7.65;;;;;;;;;;5075906;28;20451;-90
2022/08/19 15:20:15;;;;;;;14.27;8.43;;;;;;;;;;5080419;28;20116;-90
2022/08/19 15:23:10;;;;;;;14.70;8.52;;;;;;;;;;5092333;28;20149;-91
2022/08/19 15:25:43;;;;;;;13.15;7.72;;;;;;;;;;5060589;27;20044;-89
2022/08/19 15:28:35;;;;;;;11.52;7.82;;;;;;;;;;5074676;28;20067;-89
2022/08/19 15:31:03;;;;;;;10.88;7.25;;;;;;;;;;5088540;28;20066;-91
2022/08/19 15:33:42;;;;;;;9.77;7.22;;;;;;;;;;5109776;27;20493;-91
2022/08/19 15:36:13;;;;;;;10.43;7.53;;;;;;;;;;5078286;28;20494;-91
2022/08/19 15:38:45;;;;;;;12.50;8.30;;;;;;;;;;5105287;27;20100;-86
2022/08/19 15:41:37;;;;;;;10.88;7.72;;;;;;;;;;5100115;27;20118;-86
2022/08/19 15:44:08;;;;;;;11.98;8.15;;;;;;;;;;5098249;27;20056;-86